Time;durP1;ratioP1;P1;durP2;ratioP2;P2;SDS_P1;SDS_P2;PMS_P1;PMS_P2;Temp;Humidity;BMP_temperature;BMP_pressure;BME280_temperature;BME280_humidity;BME280_pressure;Samples;Min_cycle;Max_cycle;Signal;HPM_P1;HPM_P2
2020/12/14 00:01:59;;;;;;;19.08;16.92;;;;;;;12.62;62.63;101018.25;4982669;28;20786;-48
2020/12/14 00:04:24;;;;;;;17.30;14.55;;;;;;;12.63;63.12;101023.38;4971759;28;20372;-46
2020/12/14 00:06:51;;;;;;;22.55;16.05;;;;;;;12.55;63.57;101018.44;4980990;28;20131;-46
2020/12/14 00:09:17;;;;;;;19.73;15.45;;;;;;;12.56;63.20;101021.94;4972212;28;20043;-45
2020/12/14 00:11:43;;;;;;;23.88;16.75;;;;;;;12.62;63.06;101020.94;4979444;28;20055;-44
2020/12/14 00:14:08;;;;;;;25.50;14.48;;;;;;;12.60;63.14;101025.75;4983848;28;20073;-46
2020/12/14 00:16:34;;;;;;;22.77;15.95;;;;;;;12.57;63.27;101023.53;4981667;28;20030;-43
2020/12/14 00:18:59;;;;;;;18.27;16.33;;;;;;;12.56;63.34;101027.31;4971587;28;20396;-46
2020/12/14 00:21:25;;;;;;;21.30;18.10;;;;;;;12.68;63.02;101030.72;4977802;28;20035;-49
2020/12/14 00:23:51;;;;;;;20.15;14.32;;;;;;;12.70;63.13;101035.88;4985073;28;20035;-47
2020/12/14 00:26:19;;;;;;;19.05;13.93;;;;;;;12.71;62.84;101030.25;4976450;28;20546;-47
2020/12/14 00:28:48;;;;;;;27.42;15.85;;;;;;;12.57;62.93;101037.00;4982166;28;20044;-43
2020/12/14 00:31:15;;;;;;;20.67;15.18;;;;;;;12.60;63.47;101033.81;4983053;28;20037;-49
2020/12/14 00:33:41;;;;;;;18.73;13.52;;;;;;;12.56;63.03;101035.38;4977956;28;20034;-44
2020/12/14 00:36:08;;;;;;;14.68;11.63;;;;;;;12.58;62.86;101011.75;4975589;28;20038;-44
2020/12/14 00:38:33;;;;;;;15.98;11.30;;;;;;;12.57;62.66;101012.78;4973628;28;20037;-45
2020/12/14 00:40:59;;;;;;;18.08;10.77;;;;;;;12.51;62.92;101013.78;4974916;28;20038;-45
2020/12/14 00:43:24;;;;;;;14.57;9.82;;;;;;;12.39;63.27;101011.16;4983123;28;20030;-44
2020/12/14 00:45:50;;;;;;;12.50;7.90;;;;;;;12.30;63.81;101008.06;4982387;28;20174;-44
2020/12/14 00:48:15;;;;;;;19.50;6.10;;;;;;;12.44;63.14;101001.31;4983407;28;20054;-46
2020/12/14 00:50:40;;;;;;;11.02;6.88;;;;;;;12.55;62.83;101004.16;4980670;28;20051;-47
2020/12/14 00:53:06;;;;;;;8.43;5.55;;;;;;;12.46;62.72;100996.53;4978322;28;20043;-44
2020/12/14 00:55:31;;;;;;;9.27;6.15;;;;;;;12.39;63.44;100995.84;4985218;28;20128;-48
2020/12/14 00:57:57;;;;;;;10.52;6.18;;;;;;;12.37;63.56;100983.72;4972889;28;20033;-43
2020/12/14 01:00:22;;;;;;;9.13;6.35;;;;;;;12.40;63.40;100984.03;4974470;28;20492;-43
2020/12/14 01:02:48;;;;;;;6.50;5.00;;;;;;;12.38;63.53;100988.03;4974438;28;20539;-49
2020/12/14 01:05:13;;;;;;;18.67;8.95;;;;;;;12.43;63.68;100980.88;4976809;28;20038;-45
2020/12/14 01:07:38;;;;;;;22.60;17.48;;;;;;;12.40;63.47;100981.34;4976689;28;20042;-46
2020/12/14 01:10:04;;;;;;;21.02;17.17;;;;;;;12.37;63.58;100976.47;4985475;28;20410;-48
2020/12/14 01:12:29;;;;;;;21.75;15.68;;;;;;;12.40;63.33;100984.03;4987596;28;20109;-44
2020/12/14 01:14:55;;;;;;;25.13;17.80;;;;;;;12.36;63.71;100974.84;4988151;28;20045;-45
2020/12/14 01:17:20;;;;;;;19.13;15.20;;;;;;;12.31;63.62;100980.16;4988845;28;20030;-48
2020/12/14 01:19:46;;;;;;;18.35;14.20;;;;;;;12.27;63.87;100987.03;4988115;28;20035;-47
2020/12/14 01:22:11;;;;;;;18.00;12.60;;;;;;;12.35;63.83;100986.66;4989881;28;20145;-42
2020/12/14 01:24:36;;;;;;;17.15;12.40;;;;;;;12.37;63.66;100992.59;4990848;28;20034;-44
2020/12/14 01:27:02;;;;;;;16.50;10.90;;;;;;;12.32;64.14;100994.38;4987752;28;20085;-44
2020/12/14 01:29:27;;;;;;;15.63;11.00;;;;;;;12.37;63.55;100989.09;4977944;28;20074;-45
2020/12/14 01:31:53;;;;;;;19.35;9.88;;;;;;;12.32;63.75;100989.81;4984654;28;20042;-42
2020/12/14 01:34:18;;;;;;;10.52;9.52;;;;;;;12.30;64.12;100989.25;4988193;28;20459;-48
2020/12/14 01:36:47;;;;;;;13.80;8.70;;;;;;;12.19;64.42;100984.78;4985010;28;20038;-46
2020/12/14 01:39:12;;;;;;;18.17;9.75;;;;;;;12.30;64.44;100981.19;4982571;28;20467;-42
2020/12/14 01:41:39;;;;;;;18.38;11.27;;;;;;;12.37;63.85;100975.66;4978832;28;20045;-43
2020/12/14 01:44:04;;;;;;;5.43;3.45;;;;;;;12.39;63.16;100977.03;4976381;28;20378;-46
2020/12/14 01:46:31;;;;;;;12.48;6.82;;;;;;;12.28;64.05;100975.25;4977642;28;20118;-43
2020/12/14 01:49:01;;;;;;;10.65;7.85;;;;;;;12.29;64.23;100979.56;4976420;28;20043;-44
2020/12/14 01:51:31;;;;;;;14.10;8.43;;;;;;;12.32;63.60;100984.44;4976993;28;20496;-43
2020/12/14 01:53:58;;;;;;;8.73;6.78;;;;;;;12.30;63.66;100979.31;4976625;28;20039;-44
2020/12/14 01:56:25;;;;;;;9.15;6.00;;;;;;;12.26;63.66;100993.50;4980330;28;20121;-44
2020/12/14 01:58:51;;;;;;;8.43;6.68;;;;;;;12.35;63.84;100992.03;4977218;28;20030;-52
2020/12/14 02:01:17;;;;;;;10.93;6.57;;;;;;;12.29;64.22;100999.19;4985573;28;20062;-45
2020/12/14 02:03:42;;;;;;;11.13;8.38;;;;;;;12.20;64.15;100994.47;4985323;28;20034;-44
2020/12/14 02:06:08;;;;;;;11.30;7.03;;;;;;;12.21;64.46;100996.09;4977692;28;20031;-47
2020/12/14 02:08:34;;;;;;;13.93;7.15;;;;;;;12.32;63.99;100997.06;4973322;28;20046;-46
2020/12/14 02:10:59;;;;;;;15.95;10.02;;;;;;;12.28;64.06;101000.25;4976329;28;20039;-42
2020/12/14 02:13:29;;;;;;;12.02;10.02;;;;;;;12.19;64.18;101004.41;4973461;28;20467;-45
2020/12/14 02:15:55;;;;;;;17.10;10.00;;;;;;;12.21;64.39;100988.84;4978905;28;20034;-45
2020/12/14 02:18:20;;;;;;;12.68;9.23;;;;;;;12.20;64.30;100989.91;4973226;28;20038;-45
2020/12/14 02:20:46;;;;;;;14.23;8.98;;;;;;;12.22;63.79;100990.50;4984168;28;20396;-47
2020/12/14 02:23:11;;;;;;;11.55;7.90;;;;;;;12.14;64.22;100996.25;4988502;28;20050;-44
2020/12/14 02:25:37;;;;;;;11.95;9.15;;;;;;;12.18;64.51;100991.22;4982981;28;20450;-50
2020/12/14 02:28:02;;;;;;;10.75;7.20;;;;;;;12.33;63.76;100983.41;4986830;28;20046;-46
2020/12/14 02:30:28;;;;;;;11.30;6.75;;;;;;;12.35;63.40;100972.41;4987275;28;20034;-44
2020/12/14 02:32:53;;;;;;;9.68;5.68;;;;;;;12.24;63.60;100966.06;4987129;28;20043;-46
2020/12/14 02:35:18;;;;;;;6.88;5.15;;;;;;;12.17;63.69;100963.53;4988185;28;20084;-44
2020/12/14 02:37:44;;;;;;;9.98;6.03;;;;;;;12.14;64.05;100955.13;4980457;28;20038;-46
2020/12/14 02:40:09;;;;;;;15.88;5.05;;;;;;;12.23;63.93;100961.72;4984938;28;20108;-45
2020/12/14 02:42:35;;;;;;;7.38;5.53;;;;;;;12.21;63.76;100951.22;4985864;28;20440;-45
2020/12/14 02:45:00;;;;;;;5.90;3.70;;;;;;;12.30;63.14;100957.78;4987693;28;20614;-49
2020/12/14 02:47:26;;;;;;;8.52;3.92;;;;;;;12.42;63.11;100944.28;4987137;28;20509;-47
2020/12/14 02:49:51;;;;;;;5.55;1.88;;;;;;;12.68;61.16;100937.38;4986263;28;20504;-49
2020/12/14 02:52:17;;;;;;;3.80;0.57;;;;;;;12.82;59.93;100934.34;4987776;28;20486;-44
2020/12/14 02:54:43;;;;;;;2.78;1.77;;;;;;;12.86;59.73;100935.44;4985631;28;20126;-48
2020/12/14 02:57:09;;;;;;;4.72;3.22;;;;;;;12.74;60.99;100934.75;4987761;28;20130;-44
2020/12/14 02:59:35;;;;;;;7.00;2.65;;;;;;;12.80;60.28;100939.97;4989149;28;20088;-44
2020/12/14 03:02:01;;;;;;;6.30;4.65;;;;;;;12.76;61.13;100936.16;4977521;28;20034;-50
2020/12/14 03:04:28;;;;;;;16.27;5.78;;;;;;;12.67;60.93;100921.47;4979507;28;20041;-44
2020/12/14 03:06:53;;;;;;;12.75;4.70;;;;;;;12.69;60.90;100916.66;4977876;28;20523;-43
2020/12/14 03:09:20;;;;;;;5.07;1.70;;;;;;;12.81;59.93;100916.56;4985013;28;20133;-44
2020/12/14 03:11:47;;;;;;;4.55;1.35;;;;;;;13.01;58.97;100910.63;4989720;28;20034;-47
2020/12/14 03:14:13;;;;;;;4.75;1.17;;;;;;;13.17;57.50;100904.34;4983632;28;20367;-42
2020/12/14 03:16:44;;;;;;;2.25;1.10;;;;;;;13.22;57.38;100909.78;4988661;28;20156;-44
2020/12/14 03:19:10;;;;;;;2.17;1.08;;;;;;;13.21;57.94;100905.44;4989361;28;20035;-44
2020/12/14 03:21:36;;;;;;;2.25;1.25;;;;;;;13.17;58.34;100907.03;4980298;28;20047;-45
2020/12/14 03:24:01;;;;;;;0.57;0.45;;;;;;;13.09;59.18;100894.00;4978717;28;20039;-45
2020/12/14 03:26:27;;;;;;;2.00;1.17;;;;;;;12.89;59.59;100901.88;4978732;28;20031;-47
2020/12/14 03:28:53;;;;;;;4.70;2.30;;;;;;;12.88;59.90;100900.22;4979901;28;20062;-43
2020/12/14 03:31:19;;;;;;;5.28;1.83;;;;;;;12.80;60.60;100899.59;4983880;28;20042;-43
2020/12/14 03:33:44;;;;;;;4.85;0.95;;;;;;;12.71;60.81;100893.03;4980463;28;20415;-44
2020/12/14 03:36:10;;;;;;;5.57;0.98;;;;;;;12.82;60.08;100896.66;4978185;28;20125;-43
2020/12/14 03:38:35;;;;;;;1.02;0.50;;;;;;;12.76;60.52;100893.09;4978603;28;20117;-45
2020/12/14 03:41:05;;;;;;;5.85;0.82;;;;;;;12.77;60.95;100883.94;4978547;28;20035;-47
2020/12/14 03:43:31;;;;;;;0.65;0.47;;;;;;;12.76;60.07;100879.66;4979735;28;20031;-46
2020/12/14 03:45:57;;;;;;;1.73;0.70;;;;;;;12.96;59.36;100883.66;4978575;28;20045;-45
2020/12/14 03:48:23;;;;;;;0.50;0.38;;;;;;;13.00;59.39;100877.50;4984754;28;20034;-43
2020/12/14 03:50:48;;;;;;;3.03;0.90;;;;;;;12.99;59.35;100889.34;4978505;28;20054;-44
2020/12/14 03:53:14;;;;;;;0.55;0.25;;;;;;;13.06;59.04;100878.38;4984079;28;20030;-45
2020/12/14 03:55:40;;;;;;;2.63;0.57;;;;;;;13.12;57.75;100880.03;4986542;28;20042;-45
2020/12/14 03:58:07;;;;;;;6.80;0.43;;;;;;;13.26;57.20;100885.03;4988114;28;20042;-47
2020/12/14 04:00:33;;;;;;;1.25;0.80;;;;;;;13.29;56.87;100882.66;4985783;28;20042;-46
2020/12/14 04:03:00;;;;;;;4.68;0.60;;;;;;;13.33;57.50;100881.09;4986053;28;20034;-44
2020/12/14 04:05:26;;;;;;;0.40;0.40;;;;;;;13.29;57.43;100884.50;4987307;28;20072;-43
2020/12/14 04:07:51;;;;;;;5.47;1.65;;;;;;;13.29;57.95;100876.44;4978599;28;20046;-44
2020/12/14 04:10:16;;;;;;;9.32;0.85;;;;;;;13.28;57.64;100885.59;4984444;28;20038;-46
2020/12/14 04:12:42;;;;;;;1.45;0.73;;;;;;;13.30;57.41;100888.84;4984365;28;20089;-45
2020/12/14 04:15:07;;;;;;;1.00;0.38;;;;;;;13.01;57.68;100886.41;4987734;28;20042;-48
2020/12/14 04:17:33;;;;;;;2.60;0.90;;;;;;;13.12;57.91;100903.47;4984678;28;20463;-47
2020/12/14 04:19:58;;;;;;;1.20;0.60;;;;;;;13.26;57.70;100882.34;4984088;28;20039;-47
2020/12/14 04:22:24;;;;;;;1.75;0.68;;;;;;;13.36;57.08;100901.34;4980609;28;20050;-45
2020/12/14 04:24:49;;;;;;;5.07;0.40;;;;;;;13.40;56.50;100895.19;4983514;28;20038;-47
2020/12/14 04:27:15;;;;;;;3.78;0.32;;;;;;;13.39;55.75;100898.97;4985832;28;20038;-47
2020/12/14 04:29:40;;;;;;;0.85;0.52;;;;;;;13.48;55.87;100898.47;4984078;28;20125;-45
2020/12/14 04:32:05;;;;;;;2.95;1.08;;;;;;;13.52;56.08;100892.34;4985816;28;20468;-47
2020/12/14 04:34:31;;;;;;;1.33;0.50;;;;;;;13.53;55.99;100895.84;4984384;28;20459;-46
2020/12/14 04:36:56;;;;;;;2.40;1.38;;;;;;;13.50;56.08;100889.09;4982336;28;20415;-43
2020/12/14 04:39:22;;;;;;;3.85;1.58;;;;;;;13.51;56.05;100887.19;4979925;28;20383;-43
2020/12/14 04:41:47;;;;;;;1.90;0.52;;;;;;;13.50;55.65;100893.63;4984056;28;20121;-47
2020/12/14 04:44:13;;;;;;;1.65;0.85;;;;;;;13.55;55.22;100896.38;4985361;28;20116;-47
2020/12/14 04:46:39;;;;;;;2.00;1.50;;;;;;;13.52;55.63;100894.22;4983424;28;20121;-43
2020/12/14 04:49:07;;;;;;;4.75;2.47;;;;;;;13.54;56.13;100900.97;4985027;28;20490;-45
2020/12/14 04:51:36;;;;;;;1.85;1.20;;;;;;;13.64;55.99;100905.66;4985295;28;20062;-50
2020/12/14 04:54:03;;;;;;;1.13;0.40;;;;;;;13.61;56.32;100900.75;4968533;28;20445;-44
2020/12/14 04:56:28;;;;;;;4.65;0.35;;;;;;;13.59;56.35;100905.59;4986425;28;20078;-43
2020/12/14 04:58:56;;;;;;;1.85;0.73;;;;;;;13.51;56.09;100903.38;4986616;28;20066;-46
2020/12/14 05:01:22;;;;;;;1.55;0.55;;;;;;;13.58;56.38;100909.34;4985432;28;20038;-46
2020/12/14 05:03:48;;;;;;;0.77;0.40;;;;;;;13.60;56.30;100909.91;4983388;28;20041;-46
2020/12/14 05:06:14;;;;;;;1.70;0.60;;;;;;;13.58;56.70;100903.97;4977771;28;20042;-47
2020/12/14 05:08:41;;;;;;;2.65;0.73;;;;;;;13.56;56.73;100909.59;4974569;28;20732;-46
2020/12/14 05:11:10;;;;;;;0.90;0.20;;;;;;;13.63;56.48;100908.59;4984926;28;20089;-47
2020/12/14 05:13:36;;;;;;;0.82;0.32;;;;;;;13.55;56.88;100909.84;4983040;28;20087;-46
2020/12/14 05:16:01;;;;;;;2.08;0.75;;;;;;;13.54;54.87;100911.75;4985067;28;20042;-49
2020/12/14 05:18:27;;;;;;;1.80;0.45;;;;;;;13.58;55.94;100918.25;4986346;28;20030;-44
2020/12/14 05:20:56;;;;;;;1.85;0.55;;;;;;;13.54;55.66;100911.75;4984290;28;20047;-45
2020/12/14 05:23:22;;;;;;;6.63;0.93;;;;;;;13.70;55.60;100919.97;4984458;28;20709;-46
2020/12/14 05:25:48;;;;;;;3.50;0.88;;;;;;;13.72;55.70;100928.63;4983305;28;20042;-45
2020/12/14 05:28:19;;;;;;;0.40;0.30;;;;;;;13.66;55.56;100919.69;4984993;28;20042;-47
2020/12/14 05:30:49;;;;;;;1.15;0.40;;;;;;;13.73;55.61;100916.78;4983074;28;20486;-46
2020/12/14 05:33:19;;;;;;;7.35;1.75;;;;;;;13.69;56.46;100915.63;4984875;28;20042;-45
2020/12/14 05:35:46;;;;;;;1.60;0.47;;;;;;;13.66;55.79;100922.38;4984404;28;20467;-47
2020/12/14 05:38:20;;;;;;;3.83;0.70;;;;;;;13.67;55.26;100915.91;4982516;28;20070;-45
2020/12/14 05:40:54;;;;;;;2.97;0.32;;;;;;;13.65;54.79;100918.03;4984821;28;20042;-46
2020/12/14 05:43:22;;;;;;;2.13;0.55;;;;;;;13.68;55.16;100912.16;4984534;28;20038;-50
2020/12/14 05:45:50;;;;;;;2.38;0.75;;;;;;;13.70;54.88;100914.59;4985153;28;20578;-45
2020/12/14 05:48:26;;;;;;;2.03;0.93;;;;;;;13.61;55.37;100922.31;4986333;28;20085;-49
2020/12/14 05:51:07;;;;;;;2.13;0.88;;;;;;;13.58;54.94;100918.25;4983166;28;20058;-44
2020/12/14 05:53:51;;;;;;;3.45;0.90;;;;;;;13.71;54.93;100922.41;4983073;28;20045;-49
2020/12/14 05:56:17;;;;;;;4.45;0.93;;;;;;;13.69;54.70;100913.78;4977351;28;20728;-49
2020/12/14 05:58:44;;;;;;;3.08;1.17;;;;;;;13.79;55.50;100923.81;4977653;28;20035;-48
2020/12/14 06:01:10;;;;;;;4.55;2.38;;;;;;;13.78;56.19;100919.53;4974962;28;20039;-46
2020/12/14 06:03:36;;;;;;;6.10;1.00;;;;;;;13.71;56.46;100905.41;4983775;28;20049;-44
2020/12/14 06:06:08;;;;;;;4.20;2.25;;;;;;;13.68;57.05;100903.25;4980144;28;20071;-44
2020/12/14 06:08:46;;;;;;;1.45;1.08;;;;;;;13.68;56.98;100905.94;4980388;28;20026;-45
2020/12/14 06:11:11;;;;;;;5.68;2.60;;;;;;;13.68;56.92;100895.19;4985003;28;20038;-43
2020/12/14 06:13:48;;;;;;;3.70;1.27;;;;;;;13.63;57.47;100905.91;4991358;28;20037;-46
2020/12/14 06:16:20;;;;;;;3.50;2.08;;;;;;;13.59;57.41;100902.91;4984002;28;20816;-46
2020/12/14 06:18:46;;;;;;;8.57;3.17;;;;;;;13.53;57.00;100904.72;4982039;28;20035;-45
2020/12/14 06:21:18;;;;;;;7.70;2.03;;;;;;;13.58;56.76;100899.38;4979384;28;20031;-49
2020/12/14 06:23:47;;;;;;;1.27;0.75;;;;;;;13.64;56.89;100904.81;4990445;28;20053;-46
2020/12/14 06:26:15;;;;;;;2.03;1.13;;;;;;;13.67;56.17;100890.84;4988816;28;20462;-44
2020/12/14 06:28:41;;;;;;;2.05;1.65;;;;;;;13.73;55.95;100885.25;4989331;28;20042;-46
2020/12/14 06:31:06;;;;;;;16.33;10.70;;;;;;;13.72;56.07;100893.59;4993071;28;20048;-44
2020/12/14 06:33:37;;;;;;;6.25;2.50;;;;;;;13.72;56.55;100891.69;4986597;28;20101;-47
2020/12/14 06:36:23;;;;;;;4.90;3.10;;;;;;;13.73;56.94;100898.72;4983118;28;20082;-44
2020/12/14 06:38:50;;;;;;;4.75;1.83;;;;;;;13.74;57.05;100899.53;4989543;28;20089;-43
2020/12/14 06:41:17;;;;;;;2.03;1.40;;;;;;;13.73;56.98;100903.31;4991061;28;20383;-48
2020/12/14 06:43:48;;;;;;;1.45;0.98;;;;;;;13.68;56.70;100903.25;4990956;28;20018;-44
2020/12/14 06:46:14;;;;;;;0.30;0.28;;;;;;;13.72;55.91;100902.47;4992603;28;20545;-43
2020/12/14 06:48:46;;;;;;;2.25;1.08;;;;;;;13.67;55.81;100894.34;4990326;28;20038;-49
2020/12/14 06:51:17;;;;;;;2.03;0.98;;;;;;;13.67;57.50;100904.31;4990881;28;20056;-44
2020/12/14 06:53:53;;;;;;;1.85;0.85;;;;;;;13.81;58.92;100900.13;4988750;28;20061;-46
2020/12/14 06:56:27;;;;;;;3.92;1.65;;;;;;;13.95;60.66;100893.22;4987022;28;20467;-44
2020/12/14 06:58:54;;;;;;;7.35;1.25;;;;;;;13.93;57.65;100898.06;4989552;28;20049;-44
2020/12/14 07:01:40;;;;;;;3.90;0.68;;;;;;;13.98;55.84;100903.50;4990788;28;20030;-44
2020/12/14 07:04:12;;;;;;;1.85;1.02;;;;;;;13.98;56.00;100908.09;4992026;28;20041;-45
2020/12/14 07:06:37;;;;;;;0.65;0.40;;;;;;;13.89;55.05;100901.53;4991298;28;20042;-44
2020/12/14 07:09:39;;;;;;;1.42;1.10;;;;;;;13.92;54.99;100914.50;4979246;28;20464;-44
2020/12/14 07:12:10;;;;;;;1.33;0.90;;;;;;;13.96;55.63;100911.03;5021481;28;20049;-47
2020/12/14 07:14:35;;;;;;;3.22;1.40;;;;;;;13.98;56.01;100906.19;4991860;28;20046;-46
2020/12/14 07:17:16;;;;;;;2.72;1.40;;;;;;;13.94;56.02;100915.06;4982040;28;20076;-44
2020/12/14 07:19:48;;;;;;;9.68;1.25;;;;;;;14.00;55.37;100919.41;4993230;28;20030;-44
2020/12/14 07:22:17;;;;;;;2.63;1.15;;;;;;;13.99;54.96;100909.72;4987687;28;20419;-46
2020/12/14 07:24:43;;;;;;;2.80;1.85;;;;;;;13.98;57.14;100910.78;4990807;28;20038;-43
2020/12/14 07:27:11;;;;;;;4.97;2.83;;;;;;;13.96;56.26;100916.41;4993275;28;20041;-48
2020/12/14 07:29:37;;;;;;;4.95;1.50;;;;;;;14.19;56.37;100925.22;4993820;28;20403;-48
2020/12/14 07:32:04;;;;;;;7.30;2.17;;;;;;;14.15;56.21;100924.13;4993294;28;20045;-43
2020/12/14 07:34:29;;;;;;;8.68;2.97;;;;;;;14.20;56.83;100924.16;4992491;28;20481;-45
2020/12/14 07:36:55;;;;;;;8.60;3.13;;;;;;;14.02;57.40;100927.25;4977930;28;20051;-44
2020/12/14 07:39:20;;;;;;;3.17;2.42;;;;;;;14.03;56.88;100920.78;4975008;28;20038;-51
2020/12/14 07:41:47;;;;;;;16.48;3.42;;;;;;;14.05;57.84;100929.44;4984615;28;20038;-47
2020/12/14 07:44:13;;;;;;;5.53;3.53;;;;;;;14.07;57.32;100921.91;4982646;28;20399;-47
2020/12/14 07:46:38;;;;;;;19.90;9.18;;;;;;;14.00;58.16;100928.31;4976869;28;20043;-44
2020/12/14 07:49:07;;;;;;;13.82;10.23;;;;;;;14.07;57.76;100930.00;4979600;28;20181;-44
2020/12/14 07:51:44;;;;;;;13.93;12.43;;;;;;;14.07;58.04;100938.06;4976490;28;20126;-45
2020/12/14 07:54:15;;;;;;;28.98;20.25;;;;;;;14.17;57.45;100938.16;4979656;28;20039;-46
2020/12/14 07:56:45;;;;;;;10.48;6.90;;;;;;;14.19;57.57;100934.13;4981000;28;20038;-46
2020/12/14 07:59:26;;;;;;;2.88;1.52;;;;;;;14.12;57.11;100930.03;4983358;28;20049;-44
2020/12/14 08:01:52;;;;;;;6.32;2.83;;;;;;;14.13;57.36;100935.16;4985176;28;20050;-47
2020/12/14 08:04:25;;;;;;;18.85;6.03;;;;;;;14.35;57.68;100942.31;4986562;28;20065;-45
2020/12/14 08:06:51;;;;;;;40.70;26.15;;;;;;;14.31;57.47;100942.03;4983044;28;20498;-46
2020/12/14 08:09:22;;;;;;;17.42;8.85;;;;;;;14.22;58.24;100943.59;4979088;28;20097;-47
2020/12/14 08:11:49;;;;;;;16.30;7.32;;;;;;;14.16;59.21;100940.06;4984360;28;20578;-46
2020/12/14 08:14:18;;;;;;;33.38;20.73;;;;;;;14.24;59.36;100936.06;4982118;28;20042;-47
2020/12/14 08:16:45;;;;;;;10.35;7.13;;;;;;;14.49;60.96;100942.69;4976198;28;20050;-49
2020/12/14 08:19:16;;;;;;;22.60;16.13;;;;;;;14.60;60.75;100928.19;4980156;28;20045;-46
2020/12/14 08:21:41;;;;;;;15.27;7.72;;;;;;;14.62;61.66;100934.16;4976279;28;20164;-48
2020/12/14 08:24:10;;;;;;;12.60;4.50;;;;;;;14.67;62.94;100930.66;4979147;28;20531;-47
2020/12/14 08:26:38;;;;;;;3.35;2.70;;;;;;;14.63;62.32;100935.78;4977948;28;20043;-49
2020/12/14 08:29:03;;;;;;;5.78;2.22;;;;;;;14.68;63.58;100945.78;4976265;28;20514;-43
2020/12/14 08:31:29;;;;;;;5.25;1.67;;;;;;;14.75;65.57;100944.47;4977959;28;20093;-48
2020/12/14 08:33:56;;;;;;;17.90;10.50;;;;;;;14.88;63.72;100950.47;4976521;28;20038;-48
2020/12/14 08:36:23;;;;;;;8.57;4.68;;;;;;;14.81;62.75;100956.09;4981132;28;20070;-45
2020/12/14 08:38:50;;;;;;;31.95;24.50;;;;;;;14.85;63.01;100961.78;4975696;28;20034;-48
2020/12/14 08:41:25;;;;;;;13.80;7.80;;;;;;;14.98;63.22;100955.94;4987824;28;20035;-47
2020/12/14 08:43:54;;;;;;;13.32;4.03;;;;;;;14.94;64.20;100955.63;4985933;28;20031;-46
2020/12/14 08:46:27;;;;;;;9.95;5.03;;;;;;;15.11;64.28;100966.25;4987670;28;20041;-48
2020/12/14 08:49:02;;;;;;;8.27;3.47;;;;;;;15.08;65.17;100966.78;4987605;28;20050;-46
2020/12/14 08:51:33;;;;;;;10.60;6.50;;;;;;;15.15;65.25;100969.25;4987322;28;20146;-48
2020/12/14 08:54:14;;;;;;;3.60;1.58;;;;;;;15.20;64.48;100968.41;4988772;28;20062;-49
2020/12/14 08:56:41;;;;;;;9.50;4.07;;;;;;;15.29;64.73;100977.66;4986392;28;20062;-46
2020/12/14 08:59:13;;;;;;;8.50;6.18;;;;;;;15.26;65.61;100970.09;4988622;28;20034;-51
2020/12/14 09:01:39;;;;;;;7.90;2.97;;;;;;;15.28;66.14;100965.22;4986501;28;20502;-48
2020/12/14 09:04:05;;;;;;;5.07;2.67;;;;;;;15.28;66.37;100963.31;4988477;28;20065;-49
2020/12/14 09:06:36;;;;;;;7.57;2.80;;;;;;;15.26;66.70;100978.19;4987282;28;20034;-50
2020/12/14 09:09:12;;;;;;;5.30;1.90;;;;;;;15.38;65.04;100981.47;4976895;28;20038;-50
2020/12/14 09:11:50;;;;;;;10.68;3.53;;;;;;;15.32;65.06;100972.53;4979114;28;20035;-48
2020/12/14 09:14:23;;;;;;;4.47;3.40;;;;;;;15.42;65.06;100982.56;4976739;28;20069;-45
2020/12/14 09:16:52;;;;;;;9.38;3.03;;;;;;;15.54;63.79;100985.03;4986926;28;20110;-47
2020/12/14 09:19:25;;;;;;;23.98;3.13;;;;;;;15.57;62.26;100994.47;4987897;28;20125;-48
2020/12/14 09:21:51;;;;;;;19.73;6.78;;;;;;;15.54;63.03;100995.81;4990345;28;20065;-46
2020/12/14 09:24:25;;;;;;;10.27;6.10;;;;;;;15.53;62.63;100991.50;4990489;28;20026;-46
2020/12/14 09:26:52;;;;;;;12.80;6.30;;;;;;;15.60;61.09;100989.38;4989836;28;20113;-48
2020/12/14 09:29:18;;;;;;;68.75;45.92;;;;;;;15.56;62.11;100995.56;4989741;28;20151;-50
2020/12/14 09:31:55;;;;;;;44.97;32.28;;;;;;;15.56;62.21;100998.28;4989134;28;20038;-46
2020/12/14 09:34:21;;;;;;;23.35;15.70;;;;;;;15.60;62.61;100999.34;4989966;28;20026;-47
2020/12/14 09:36:51;;;;;;;11.27;5.32;;;;;;;15.65;60.87;100993.97;4987888;28;20361;-49
2020/12/14 09:39:17;;;;;;;20.13;13.18;;;;;;;15.75;61.29;101002.13;4989534;28;20382;-49
2020/12/14 09:41:42;;;;;;;15.60;7.10;;;;;;;15.77;60.55;101002.66;4989368;28;20152;-49
2020/12/14 09:44:08;;;;;;;36.25;8.20;;;;;;;15.69;60.51;101005.88;4987418;28;20038;-50
2020/12/14 09:46:33;;;;;;;13.10;5.90;;;;;;;15.70;60.61;101002.88;4986018;28;20049;-45
2020/12/14 09:48:59;;;;;;;11.80;5.88;;;;;;;15.79;60.01;101005.91;4987933;28;20034;-41
2020/12/14 09:51:25;;;;;;;17.55;6.90;;;;;;;16.01;59.38;101007.59;4986997;28;20069;-45
2020/12/14 09:53:51;;;;;;;8.15;4.18;;;;;;;16.04;59.34;100990.78;4985943;28;20066;-45
2020/12/14 09:56:17;;;;;;;10.65;4.68;;;;;;;16.04;59.43;100996.19;4987191;28;20038;-48
2020/12/14 09:58:42;;;;;;;5.25;2.50;;;;;;;16.01;59.07;100988.66;4985124;28;20030;-43
2020/12/14 10:01:08;;;;;;;7.72;4.10;;;;;;;16.06;59.12;100991.34;4986990;28;20360;-42
2020/12/14 10:03:35;;;;;;;11.02;5.75;;;;;;;16.15;60.23;100988.94;4985009;28;20038;-47
2020/12/14 10:06:00;;;;;;;8.13;3.65;;;;;;;16.19;59.84;100993.50;4983140;28;20026;-47
2020/12/14 10:08:26;;;;;;;12.02;5.07;;;;;;;16.35;58.91;100990.81;4973125;28;20436;-45
2020/12/14 10:10:55;;;;;;;17.52;13.20;;;;;;;16.36;57.84;100976.19;4978600;28;20356;-46
2020/12/14 10:13:20;;;;;;;20.38;11.18;;;;;;;16.45;56.44;100979.97;4980342;28;20034;-41
2020/12/14 10:15:46;;;;;;;14.13;8.40;;;;;;;16.41;58.61;100977.00;4979250;28;20038;-48
2020/12/14 10:18:11;;;;;;;4.93;2.85;;;;;;;16.43;58.71;100982.16;4978649;28;20090;-42
2020/12/14 10:20:37;;;;;;;6.72;4.85;;;;;;;16.48;59.56;100974.03;4977360;28;20038;-46
2020/12/14 10:23:04;;;;;;;5.53;3.65;;;;;;;16.49;57.32;100969.41;4973873;28;20431;-46
2020/12/14 10:25:29;;;;;;;6.35;2.70;;;;;;;16.60;54.82;100979.94;4975806;28;20034;-47
2020/12/14 10:27:54;;;;;;;15.05;4.53;;;;;;;16.57;56.73;100975.06;4974413;28;20168;-44
2020/12/14 10:30:20;;;;;;;6.82;2.67;;;;;;;16.75;57.03;100975.59;4973794;28;20039;-45
2020/12/14 10:32:46;;;;;;;6.65;4.55;;;;;;;16.73;54.10;100965.03;4982793;28;20037;-44
2020/12/14 10:35:12;;;;;;;3.65;2.10;;;;;;;16.86;54.69;100960.94;4987637;28;20416;-46
2020/12/14 10:37:38;;;;;;;5.75;2.08;;;;;;;16.96;55.04;100952.78;4987638;28;20403;-46
2020/12/14 10:40:05;;;;;;;8.43;4.82;;;;;;;17.22;51.57;100955.41;4988698;28;20034;-46
2020/12/14 10:42:32;;;;;;;12.52;7.35;;;;;;;17.28;51.84;100951.56;4990067;28;20088;-43
2020/12/14 10:44:59;;;;;;;6.82;3.67;;;;;;;17.22;52.80;100949.97;4987856;28;20045;-44
2020/12/14 10:47:24;;;;;;;8.90;2.90;;;;;;;17.37;53.71;100959.91;4986299;28;20392;-45
2020/12/14 10:49:51;;;;;;;14.00;3.83;;;;;;;17.47;49.69;100946.31;4988479;28;20534;-45
2020/12/14 10:52:16;;;;;;;20.75;7.70;;;;;;;17.66;50.25;100948.38;4990552;28;20034;-45
2020/12/14 10:54:42;;;;;;;8.32;4.22;;;;;;;17.65;50.97;100955.66;4978814;28;20077;-49
2020/12/14 10:57:07;;;;;;;11.30;3.83;;;;;;;17.88;50.33;100958.81;4987909;28;20039;-44
2020/12/14 10:59:33;;;;;;;13.00;4.93;;;;;;;17.96;48.51;100944.63;4986665;28;20069;-47
2020/12/14 11:01:59;;;;;;;19.65;5.30;;;;;;;18.01;48.57;100941.88;4975648;28;20742;-41
2020/12/14 11:04:24;;;;;;;2.05;1.35;;;;;;;18.19;48.69;100942.28;4981635;28;20368;-44
2020/12/14 11:06:50;;;;;;;6.55;3.05;;;;;;;18.14;47.98;100946.66;4975672;28;20506;-42
2020/12/14 11:09:15;;;;;;;17.20;7.15;;;;;;;18.24;48.77;100944.94;4980050;28;20089;-50
2020/12/14 11:11:41;;;;;;;8.05;4.22;;;;;;;18.37;50.71;100933.41;4977833;28;20057;-45
2020/12/14 11:14:06;;;;;;;9.77;2.15;;;;;;;18.51;49.10;100934.34;4978526;28;20104;-49
2020/12/14 11:16:33;;;;;;;8.77;3.30;;;;;;;18.66;48.72;100936.09;4978129;28;20042;-49
2020/12/14 11:18:59;;;;;;;2.60;1.48;;;;;;;18.65;44.93;100933.66;4983572;28;20797;-43
2020/12/14 11:21:25;;;;;;;3.63;2.38;;;;;;;18.57;46.22;100939.75;4978359;28;20034;-48
2020/12/14 11:23:51;;;;;;;2.83;1.10;;;;;;;18.38;47.79;100932.31;4977261;28;20372;-49